Nearby METAR Reports

 

KIMT - Iron Mountain, Michigan, USA
Distance from station: 0 29mi, 47km
Updated: Sat, 04-Dec-2021 9:54am CST
Mostly cloudy
Mostly cloudy
 Wind from WNW
Wind: WNW 17 mph , 28 km/h, Gust: 29 mph , 46 km/h
Temperature: 28°F , -2°C
Wind Chill: 16°F , -9°C
Dew Point: 12°F , -11°C
Humidity: 51%
Barometer: 30.09 inHg , 1019 hPa
Clouds: Mostly cloudy
Visibility: 10 miles , 16 km
Cloud details: Mostly cloudy 4100 ft
2021/12/04 15:54 KIMT 041554Z AUTO 29015G25KT 10SM BKN041 M02/M11 A3009 RMK AO2 SLP205 T10171106
KMNM - Menominee, Michigan, USA
Distance from station: SE 31mi, 51km
Updated: Sat, 04-Dec-2021 9:56am CST
Clear
Clear
 Wind from varies
Wind: varies 7 mph , 11 km/h, Gust: 17 mph , 28 km/h
Temperature: 32°F , 0°C
Wind Chill: 25°F , -4°C
Dew Point: 16°F , -9°C
Humidity: 51%
Barometer: 30.18 inHg , 1022 hPa
Clouds: Clear
Visibility: 10 miles , 16 km
2021/12/04 15:56 KMNM 041556Z AUTO VRB06G15KT 10SM CLR 00/M09 A3018 RMK AO2 SLP227 T00001089 FZRANO $
 
KOCQ - Oconto, Wisconsin, USA
Distance from station: SSE 38mi, 61km
Updated: Sat, 04-Dec-2021 10:35am CST
Clear
Clear
 Wind from WNW
Wind: WNW 7 mph , 11 km/h
Temperature: 32°F , 0°C
Wind Chill: 25°F , -4°C
Dew Point: 16°F , -9°C
Humidity: 51%
Barometer: 30.19 inHg , 1022.4 hPa
Clouds: Clear
Visibility: 10 miles , 16 km
2021/12/04 16:35 KOCQ 041635Z AUTO 30006KT 10SM CLR 00/M09 A3019 RMK AO1 T00001094
KEZS - Shawano Muni, Wisconsin, USA
Distance from station: SSW 48mi, 77km
Updated: Sat, 04-Dec-2021 10:35am CST
Clear
Clear
 Wind from W
Wind: W 8 mph , 13 km/h, Gust: 20 mph , 31 km/h
Temperature: 34°F , 1°C
Wind Chill: 27°F , -3°C
Dew Point: 16°F , -9°C
Humidity: 48%
Barometer: 30.20 inHg , 1022.7 hPa
Clouds: Clear
Visibility: 10 miles , 16 km
2021/12/04 16:35 KEZS 041635Z AUTO 28007G17KT 10SM CLR 01/M09 A3020 RMK AO2 T00101089
 
KAIG - Antigo/Langlade, Wisconsin, USA
Distance from station: WSW 51mi, 82km
Updated: Sat, 04-Dec-2021 10:35am CST
Clear
Clear
 Wind from W
Wind: W 16 mph , 26 km/h, Gust: 21 mph , 33 km/h
Temperature: 28°F , -2°C
Wind Chill: 16°F , -9°C
Dew Point: 12°F , -11°C
Humidity: 51%
Barometer: 30.16 inHg , 1021.3 hPa
Clouds: Clear
Visibility: 10 miles , 16 km
2021/12/04 16:35 KAIG 041635Z AUTO 28014G18KT 10SM CLR M02/M11 A3016 RMK AO2 T10231106
KSUE - Sturgeon Bay, Wisconsin, USA
Distance from station: SE 51mi, 82km
Updated: Sat, 04-Dec-2021 9:56am CST
Clear
Clear
 Wind from WNW
Wind: WNW 16 mph , 26 km/h
Temperature: 32°F , 0°C
Wind Chill: 21°F , -6°C
Dew Point: 18°F , -8°C
Humidity: 55%
Barometer: 30.18 inHg , 1022 hPa
Clouds: Clear
Visibility: 10 miles , 16 km
2021/12/04 15:56 KSUE 041556Z AUTO 30014KT 10SM CLR 00/M08 A3018 RMK AO2 SLP228 T00001083 FZRANO $
 
KESC - Escanaba, Michigan, USA
Distance from station: ENE 56mi, 90km
Updated: Sat, 04-Dec-2021 9:56am CST
Mostly cloudy
Mostly cloudy
 Wind from W
Wind: W 12 mph , 19 km/h
Temperature: 32°F , 0°C
Wind Chill: 23°F , -5°C
Dew Point: 19°F , -7°C
Humidity: 60%
Barometer: 30.10 inHg , 1019.3 hPa
Clouds: Mostly cloudy
Visibility: 10 miles , 16 km
Cloud details: Mostly cloudy 4300 ft
2021/12/04 15:56 KESC 041556Z AUTO 27010KT 10SM BKN043 00/M07 A3010 RMK AO2 SLP204 T00001067 FZRANO $
KCLI - Clintonville, Wisconsin, USA
Distance from station: SSW 62mi, 99km
Updated: Sat, 04-Dec-2021 10:35am CST
Clear
Clear
 Wind from WNW
Wind: WNW 16 mph , 26 km/h, Gust: 24 mph , 39 km/h
Temperature: 32°F , 0°C
Wind Chill: 21°F , -6°C
Dew Point: 14°F , -10°C
Humidity: 47%
Barometer: 30.23 inHg , 1023.7 hPa
Clouds: Clear
Visibility: 10 miles , 16 km
2021/12/04 16:35 KCLI 041635Z AUTO 30014G21KT 10SM CLR 00/M10 A3023 RMK AO2
 
KGRB - Ashwaubenon, Wisconsin, USA
Distance from station: S 63mi, 102km
Updated: Sat, 04-Dec-2021 9:53am CST
Clear
Clear
 Wind from WNW
Wind: WNW 13 mph , 20 km/h, Gust: 22 mph , 35 km/h
Temperature: 32°F , 0°C
Wind Chill: 22°F , -6°C
Dew Point: 18°F , -8°C
Humidity: 55%
Barometer: 30.21 inHg , 1023 hPa
Clouds: Clear
Visibility: 10 miles , 16 km
2021/12/04 15:53 KGRB 041553Z 29011G19KT 10SM CLR 00/M08 A3021 RMK AO2 SLP240 T00001083
KEGV - Eagle River, Wisconsin, USA
Distance from station: NW 66mi, 107km
Updated: Sat, 04-Dec-2021 10:35am CST
Clear
Clear
 Wind from WNW
Wind: WNW 15 mph , 24 km/h, Gust: 20 mph , 31 km/h
Temperature: 25°F , -4°C
Wind Chill: 13°F , -11°C
Dew Point: 10°F , -12°C
Humidity: 54%
Barometer: 30.13 inHg , 1020.3 hPa
Clouds: Clear
Visibility: 10 miles , 16 km
2021/12/04 16:35 KEGV 041635Z AUTO 29013G17KT 10SM CLR M04/M12 A3013 RMK AO2 T10381117
 
KRHI - Rhinelander, Wisconsin, USA
Distance from station: WNW 68mi, 109km
Updated: Sat, 04-Dec-2021 9:53am CST
Clear
Clear
 Wind from WNW
Wind: WNW 14 mph , 22 km/h, Gust: 28 mph , 44 km/h
Temperature: 25°F , -4°C
Wind Chill: 13°F , -11°C
Dew Point: 10°F , -12°C
Humidity: 54%
Barometer: 30.14 inHg , 1020.7 hPa
Clouds: Clear
Visibility: 10 miles , 16 km
2021/12/04 15:53 KRHI 041553Z AUTO 29012G24KT 10SM CLR M04/M12 A3014 RMK AO2 PK WND 26026/1531 SLP230 T10391122
KLNL - Land O Lakes, Wisconsin, USA
Distance from station: NW 74mi, 119km
Updated: Sat, 04-Dec-2021 10:35am CST
Overcast
Overcast
 Wind from WNW
Wind: WNW 10 mph , 17 km/h, Gust: 23 mph , 37 km/h
Temperature: 25°F , -4°C
Wind Chill: 15°F , -9°C
Dew Point: 12°F , -11°C
Humidity: 59%
Barometer: 30.13 inHg , 1020.3 hPa
Clouds: Overcast
Visibility: 10 miles , 16 km
Cloud details: Overcast 2900 ft
2021/12/04 16:35 KLNL 041635Z AUTO 29009G20KT 10SM OVC029 M04/M11 A3013 RMK AO2 T10401106
 
KSAW - Gwinn/Sawyer, Michigan, USA
Distance from station: NNE 74mi, 120km
Updated: Sat, 04-Dec-2021 9:50am CST
Overcast
Overcast
 Wind from NW
Wind: NW 17 mph , 28 km/h, Gust: 28 mph , 44 km/h
Temperature: 27°F , -3°C
Wind Chill: 14°F , -10°C
Dew Point: 16°F , -9°C
Humidity: 64%
Barometer: 30.04 inHg , 1017.3 hPa
Clouds: Overcast
Visibility: 10 miles , 16 km
Cloud details: Partly cloudy 3500 ft
Overcast 4200 ft
2021/12/04 15:50 KSAW 041550Z 31015G24KT 10SM SCT035 OVC042 M03/M09 A3004